sensor_id;sensor_type;location;lat;lon;timestamp;P1;durP1;ratioP1;P2;durP2;ratioP2
51438;SDS011;38816;51.142;-0.974;2024-02-21T00:01:30;25.65;;;7.53;;
51438;SDS011;38816;51.142;-0.974;2024-02-21T00:03:55;28.13;;;7.88;;
51438;SDS011;38816;51.142;-0.974;2024-02-21T00:06:21;34.67;;;7.07;;
51438;SDS011;38816;51.142;-0.974;2024-02-21T00:08:46;24.45;;;6.88;;
51438;SDS011;38816;51.142;-0.974;2024-02-21T00:11:12;29.90;;;6.75;;
51438;SDS011;38816;51.142;-0.974;2024-02-21T00:13:37;26.05;;;7.65;;
51438;SDS011;38816;51.142;-0.974;2024-02-21T00:16:03;18.38;;;5.75;;
51438;SDS011;38816;51.142;-0.974;2024-02-21T00:18:28;23.83;;;7.45;;
51438;SDS011;38816;51.142;-0.974;2024-02-21T00:20:54;31.38;;;6.65;;
51438;SDS011;38816;51.142;-0.974;2024-02-21T00:23:19;28.10;;;7.60;;
51438;SDS011;38816;51.142;-0.974;2024-02-21T00:25:45;24.17;;;7.55;;
51438;SDS011;38816;51.142;-0.974;2024-02-21T00:28:11;23.58;;;6.55;;
51438;SDS011;38816;51.142;-0.974;2024-02-21T00:30:36;22.30;;;6.93;;
51438;SDS011;38816;51.142;-0.974;2024-02-21T00:33:03;21.27;;;6.80;;
51438;SDS011;38816;51.142;-0.974;2024-02-21T00:35:28;30.42;;;8.40;;
51438;SDS011;38816;51.142;-0.974;2024-02-21T00:37:54;23.42;;;8.20;;
51438;SDS011;38816;51.142;-0.974;2024-02-21T00:40:22;17.92;;;6.75;;
51438;SDS011;38816;51.142;-0.974;2024-02-21T00:42:48;27.83;;;7.57;;
51438;SDS011;38816;51.142;-0.974;2024-02-21T00:45:14;29.55;;;7.22;;
51438;SDS011;38816;51.142;-0.974;2024-02-21T00:47:39;22.38;;;7.30;;
51438;SDS011;38816;51.142;-0.974;2024-02-21T00:50:05;21.30;;;6.70;;
51438;SDS011;38816;51.142;-0.974;2024-02-21T00:52:32;27.65;;;7.35;;
51438;SDS011;38816;51.142;-0.974;2024-02-21T00:54:58;22.25;;;7.65;;
51438;SDS011;38816;51.142;-0.974;2024-02-21T00:57:23;26.17;;;6.93;;
51438;SDS011;38816;51.142;-0.974;2024-02-21T00:59:49;22.33;;;6.47;;
51438;SDS011;38816;51.142;-0.974;2024-02-21T01:02:14;33.17;;;8.00;;
51438;SDS011;38816;51.142;-0.974;2024-02-21T01:04:40;32.63;;;7.32;;
51438;SDS011;38816;51.142;-0.974;2024-02-21T01:07:05;21.77;;;5.55;;
51438;SDS011;38816;51.142;-0.974;2024-02-21T01:09:31;26.95;;;7.80;;
51438;SDS011;38816;51.142;-0.974;2024-02-21T01:11:56;23.17;;;7.53;;
51438;SDS011;38816;51.142;-0.974;2024-02-21T01:14:22;32.03;;;7.15;;
51438;SDS011;38816;51.142;-0.974;2024-02-21T01:16:47;28.20;;;8.55;;
51438;SDS011;38816;51.142;-0.974;2024-02-21T01:19:13;27.77;;;8.05;;
51438;SDS011;38816;51.142;-0.974;2024-02-21T01:21:38;28.30;;;7.55;;
51438;SDS011;38816;51.142;-0.974;2024-02-21T01:24:04;27.67;;;7.13;;
51438;SDS011;38816;51.142;-0.974;2024-02-21T01:26:29;23.63;;;7.63;;
51438;SDS011;38816;51.142;-0.974;2024-02-21T01:28:55;24.70;;;7.82;;
51438;SDS011;38816;51.142;-0.974;2024-02-21T01:31:20;18.60;;;6.72;;
51438;SDS011;38816;51.142;-0.974;2024-02-21T01:33:46;26.70;;;7.78;;
51438;SDS011;38816;51.142;-0.974;2024-02-21T01:36:11;21.60;;;8.20;;
51438;SDS011;38816;51.142;-0.974;2024-02-21T01:38:37;18.55;;;7.78;;
51438;SDS011;38816;51.142;-0.974;2024-02-21T01:41:02;22.27;;;6.78;;
51438;SDS011;38816;51.142;-0.974;2024-02-21T01:43:28;18.85;;;6.30;;
51438;SDS011;38816;51.142;-0.974;2024-02-21T01:45:56;25.15;;;7.65;;
51438;SDS011;38816;51.142;-0.974;2024-02-21T01:48:22;25.23;;;6.45;;
51438;SDS011;38816;51.142;-0.974;2024-02-21T01:50:49;27.63;;;6.97;;
51438;SDS011;38816;51.142;-0.974;2024-02-21T01:53:20;22.45;;;6.70;;
51438;SDS011;38816;51.142;-0.974;2024-02-21T01:55:48;26.92;;;5.90;;
51438;SDS011;38816;51.142;-0.974;2024-02-21T01:58:14;22.55;;;6.63;;
51438;SDS011;38816;51.142;-0.974;2024-02-21T02:00:44;26.67;;;6.47;;
51438;SDS011;38816;51.142;-0.974;2024-02-21T02:03:11;17.95;;;6.72;;
51438;SDS011;38816;51.142;-0.974;2024-02-21T02:05:45;29.05;;;6.05;;
51438;SDS011;38816;51.142;-0.974;2024-02-21T02:08:15;34.22;;;6.32;;
51438;SDS011;38816;51.142;-0.974;2024-02-21T02:10:41;19.65;;;6.07;;
51438;SDS011;38816;51.142;-0.974;2024-02-21T02:13:07;20.90;;;6.35;;
51438;SDS011;38816;51.142;-0.974;2024-02-21T02:18:08;22.83;;;7.72;;
51438;SDS011;38816;51.142;-0.974;2024-02-21T02:20:35;26.13;;;6.70;;
51438;SDS011;38816;51.142;-0.974;2024-02-21T02:23:01;17.70;;;6.53;;
51438;SDS011;38816;51.142;-0.974;2024-02-21T02:25:39;24.80;;;8.20;;
51438;SDS011;38816;51.142;-0.974;2024-02-21T02:28:08;22.60;;;7.10;;
51438;SDS011;38816;51.142;-0.974;2024-02-21T02:30:34;28.00;;;8.30;;
51438;SDS011;38816;51.142;-0.974;2024-02-21T02:33:04;25.83;;;7.97;;
51438;SDS011;38816;51.142;-0.974;2024-02-21T02:35:29;25.20;;;7.25;;
51438;SDS011;38816;51.142;-0.974;2024-02-21T02:37:55;25.42;;;7.35;;
51438;SDS011;38816;51.142;-0.974;2024-02-21T02:40:21;28.40;;;7.10;;
51438;SDS011;38816;51.142;-0.974;2024-02-21T02:42:47;20.60;;;7.85;;
51438;SDS011;38816;51.142;-0.974;2024-02-21T02:45:14;28.30;;;6.93;;
51438;SDS011;38816;51.142;-0.974;2024-02-21T02:47:46;15.45;;;5.45;;
51438;SDS011;38816;51.142;-0.974;2024-02-21T02:50:12;20.95;;;6.93;;
51438;SDS011;38816;51.142;-0.974;2024-02-21T02:52:38;23.70;;;6.80;;
51438;SDS011;38816;51.142;-0.974;2024-02-21T02:55:03;14.88;;;6.50;;
51438;SDS011;38816;51.142;-0.974;2024-02-21T02:57:30;26.60;;;7.75;;
51438;SDS011;38816;51.142;-0.974;2024-02-21T02:59:55;24.02;;;7.05;;
51438;SDS011;38816;51.142;-0.974;2024-02-21T03:02:21;24.92;;;6.97;;
51438;SDS011;38816;51.142;-0.974;2024-02-21T03:04:47;17.38;;;6.32;;
51438;SDS011;38816;51.142;-0.974;2024-02-21T03:07:13;25.02;;;6.63;;
51438;SDS011;38816;51.142;-0.974;2024-02-21T03:09:39;18.00;;;5.95;;
51438;SDS011;38816;51.142;-0.974;2024-02-21T03:12:05;23.30;;;5.53;;
51438;SDS011;38816;51.142;-0.974;2024-02-21T03:14:31;34.17;;;6.43;;
51438;SDS011;38816;51.142;-0.974;2024-02-21T03:16:58;25.25;;;5.72;;
51438;SDS011;38816;51.142;-0.974;2024-02-21T03:19:24;20.25;;;6.03;;
51438;SDS011;38816;51.142;-0.974;2024-02-21T03:21:50;33.35;;;6.07;;
51438;SDS011;38816;51.142;-0.974;2024-02-21T03:24:18;25.88;;;5.60;;
51438;SDS011;38816;51.142;-0.974;2024-02-21T03:26:44;23.08;;;5.78;;
51438;SDS011;38816;51.142;-0.974;2024-02-21T03:29:11;19.08;;;5.40;;
51438;SDS011;38816;51.142;-0.974;2024-02-21T03:31:37;21.63;;;6.07;;
51438;SDS011;38816;51.142;-0.974;2024-02-21T03:34:05;17.48;;;4.82;;
51438;SDS011;38816;51.142;-0.974;2024-02-21T03:36:31;17.83;;;5.07;;
51438;SDS011;38816;51.142;-0.974;2024-02-21T03:38:59;17.00;;;4.60;;
51438;SDS011;38816;51.142;-0.974;2024-02-21T03:41:25;22.10;;;5.35;;
51438;SDS011;38816;51.142;-0.974;2024-02-21T03:43:50;22.45;;;5.18;;
51438;SDS011;38816;51.142;-0.974;2024-02-21T03:46:15;21.45;;;5.10;;
51438;SDS011;38816;51.142;-0.974;2024-02-21T03:48:44;14.70;;;4.50;;
51438;SDS011;38816;51.142;-0.974;2024-02-21T03:51:10;21.90;;;5.00;;
51438;SDS011;38816;51.142;-0.974;2024-02-21T03:53:36;16.05;;;6.20;;
51438;SDS011;38816;51.142;-0.974;2024-02-21T03:56:01;18.75;;;4.63;;
51438;SDS011;38816;51.142;-0.974;2024-02-21T03:58:29;14.73;;;4.88;;
51438;SDS011;38816;51.142;-0.974;2024-02-21T04:00:55;16.55;;;3.92;;
51438;SDS011;38816;51.142;-0.974;2024-02-21T04:03:20;14.43;;;3.92;;
51438;SDS011;38816;51.142;-0.974;2024-02-21T04:05:46;22.83;;;5.07;;
51438;SDS011;38816;51.142;-0.974;2024-02-21T04:08:11;15.65;;;4.72;;
51438;SDS011;38816;51.142;-0.974;2024-02-21T04:10:37;14.02;;;4.28;;
51438;SDS011;38816;51.142;-0.974;2024-02-21T04:13:03;21.77;;;4.43;;
51438;SDS011;38816;51.142;-0.974;2024-02-21T04:15:30;23.17;;;4.50;;
51438;SDS011;38816;51.142;-0.974;2024-02-21T04:17:55;22.30;;;4.85;;
51438;SDS011;38816;51.142;-0.974;2024-02-21T04:20:21;21.40;;;4.70;;
51438;SDS011;38816;51.142;-0.974;2024-02-21T04:22:46;16.45;;;3.85;;
51438;SDS011;38816;51.142;-0.974;2024-02-21T04:25:12;15.70;;;3.97;;
51438;SDS011;38816;51.142;-0.974;2024-02-21T04:27:41;12.93;;;3.50;;
51438;SDS011;38816;51.142;-0.974;2024-02-21T04:30:07;19.70;;;5.57;;
51438;SDS011;38816;51.142;-0.974;2024-02-21T04:32:32;27.73;;;4.43;;
51438;SDS011;38816;51.142;-0.974;2024-02-21T04:34:59;11.40;;;3.72;;
51438;SDS011;38816;51.142;-0.974;2024-02-21T04:37:24;17.67;;;4.43;;
51438;SDS011;38816;51.142;-0.974;2024-02-21T04:39:50;20.83;;;3.83;;
51438;SDS011;38816;51.142;-0.974;2024-02-21T04:42:16;11.40;;;3.55;;
51438;SDS011;38816;51.142;-0.974;2024-02-21T04:44:41;14.05;;;3.67;;
51438;SDS011;38816;51.142;-0.974;2024-02-21T04:47:07;14.85;;;3.83;;
51438;SDS011;38816;51.142;-0.974;2024-02-21T04:49:33;14.68;;;3.55;;
51438;SDS011;38816;51.142;-0.974;2024-02-21T04:51:58;15.70;;;3.80;;
51438;SDS011;38816;51.142;-0.974;2024-02-21T04:54:24;12.95;;;3.92;;
51438;SDS011;38816;51.142;-0.974;2024-02-21T04:56:50;14.13;;;3.25;;
51438;SDS011;38816;51.142;-0.974;2024-02-21T04:59:16;17.45;;;4.95;;
51438;SDS011;38816;51.142;-0.974;2024-02-21T05:01:42;15.15;;;3.75;;
51438;SDS011;38816;51.142;-0.974;2024-02-21T05:04:07;14.75;;;4.10;;
51438;SDS011;38816;51.142;-0.974;2024-02-21T05:06:39;14.88;;;3.72;;
51438;SDS011;38816;51.142;-0.974;2024-02-21T05:09:08;13.73;;;3.22;;
51438;SDS011;38816;51.142;-0.974;2024-02-21T05:11:34;12.50;;;3.97;;
51438;SDS011;38816;51.142;-0.974;2024-02-21T05:14:05;15.63;;;4.03;;
51438;SDS011;38816;51.142;-0.974;2024-02-21T05:16:31;15.80;;;3.90;;
51438;SDS011;38816;51.142;-0.974;2024-02-21T05:18:57;12.18;;;3.58;;
51438;SDS011;38816;51.142;-0.974;2024-02-21T05:21:23;22.48;;;4.00;;
51438;SDS011;38816;51.142;-0.974;2024-02-21T05:23:49;11.73;;;3.25;;
51438;SDS011;38816;51.142;-0.974;2024-02-21T05:26:22;10.63;;;4.03;;
51438;SDS011;38816;51.142;-0.974;2024-02-21T05:28:48;15.95;;;4.07;;
51438;SDS011;38816;51.142;-0.974;2024-02-21T05:31:15;15.98;;;5.22;;
51438;SDS011;38816;51.142;-0.974;2024-02-21T05:33:41;15.73;;;4.47;;
51438;SDS011;38816;51.142;-0.974;2024-02-21T05:36:07;15.25;;;4.10;;
51438;SDS011;38816;51.142;-0.974;2024-02-21T05:38:32;14.02;;;4.20;;
51438;SDS011;38816;51.142;-0.974;2024-02-21T05:40:58;10.35;;;4.32;;
51438;SDS011;38816;51.142;-0.974;2024-02-21T05:43:23;15.98;;;4.90;;
51438;SDS011;38816;51.142;-0.974;2024-02-21T05:45:49;14.20;;;4.63;;
51438;SDS011;38816;51.142;-0.974;2024-02-21T05:48:14;10.15;;;4.05;;
51438;SDS011;38816;51.142;-0.974;2024-02-21T05:50:40;12.15;;;4.55;;
51438;SDS011;38816;51.142;-0.974;2024-02-21T05:53:05;10.65;;;5.18;;
51438;SDS011;38816;51.142;-0.974;2024-02-21T05:55:31;10.35;;;5.28;;
51438;SDS011;38816;51.142;-0.974;2024-02-21T05:57:56;14.40;;;5.00;;
51438;SDS011;38816;51.142;-0.974;2024-02-21T06:00:22;9.93;;;5.07;;
51438;SDS011;38816;51.142;-0.974;2024-02-21T06:02:47;9.30;;;6.13;;
51438;SDS011;38816;51.142;-0.974;2024-02-21T06:05:13;12.80;;;5.32;;
51438;SDS011;38816;51.142;-0.974;2024-02-21T06:07:38;11.50;;;9.15;;
51438;SDS011;38816;51.142;-0.974;2024-02-21T06:10:04;17.73;;;8.68;;
51438;SDS011;38816;51.142;-0.974;2024-02-21T06:12:30;11.30;;;9.52;;
51438;SDS011;38816;51.142;-0.974;2024-02-21T06:14:56;10.57;;;8.07;;
51438;SDS011;38816;51.142;-0.974;2024-02-21T06:17:21;15.55;;;8.88;;
51438;SDS011;38816;51.142;-0.974;2024-02-21T06:19:47;14.88;;;7.53;;
51438;SDS011;38816;51.142;-0.974;2024-02-21T06:22:12;12.27;;;8.30;;
51438;SDS011;38816;51.142;-0.974;2024-02-21T06:24:38;11.80;;;8.05;;
51438;SDS011;38816;51.142;-0.974;2024-02-21T06:27:04;14.18;;;6.70;;
51438;SDS011;38816;51.142;-0.974;2024-02-21T06:29:33;12.88;;;8.15;;
51438;SDS011;38816;51.142;-0.974;2024-02-21T06:31:59;14.88;;;7.22;;
51438;SDS011;38816;51.142;-0.974;2024-02-21T06:34:25;17.90;;;8.73;;
51438;SDS011;38816;51.142;-0.974;2024-02-21T06:36:51;13.43;;;8.18;;
51438;SDS011;38816;51.142;-0.974;2024-02-21T06:39:16;14.25;;;7.63;;
51438;SDS011;38816;51.142;-0.974;2024-02-21T06:41:42;15.50;;;7.97;;
51438;SDS011;38816;51.142;-0.974;2024-02-21T06:44:08;9.93;;;8.32;;
51438;SDS011;38816;51.142;-0.974;2024-02-21T06:46:33;21.17;;;9.38;;
51438;SDS011;38816;51.142;-0.974;2024-02-21T06:48:59;16.48;;;7.45;;
51438;SDS011;38816;51.142;-0.974;2024-02-21T06:51:25;18.55;;;8.32;;
51438;SDS011;38816;51.142;-0.974;2024-02-21T06:53:51;14.50;;;8.05;;
51438;SDS011;38816;51.142;-0.974;2024-02-21T06:56:17;13.50;;;8.30;;
51438;SDS011;38816;51.142;-0.974;2024-02-21T06:58:43;17.60;;;9.18;;
51438;SDS011;38816;51.142;-0.974;2024-02-21T07:01:08;13.70;;;8.82;;
51438;SDS011;38816;51.142;-0.974;2024-02-21T07:03:35;15.93;;;8.88;;
51438;SDS011;38816;51.142;-0.974;2024-02-21T07:06:01;14.38;;;8.45;;
51438;SDS011;38816;51.142;-0.974;2024-02-21T07:08:26;19.60;;;8.77;;
51438;SDS011;38816;51.142;-0.974;2024-02-21T07:10:52;15.38;;;9.15;;
51438;SDS011;38816;51.142;-0.974;2024-02-21T07:13:17;17.88;;;8.95;;
51438;SDS011;38816;51.142;-0.974;2024-02-21T07:15:43;21.80;;;9.40;;
51438;SDS011;38816;51.142;-0.974;2024-02-21T07:18:09;21.67;;;9.15;;
51438;SDS011;38816;51.142;-0.974;2024-02-21T07:20:34;18.25;;;8.98;;
51438;SDS011;38816;51.142;-0.974;2024-02-21T07:23:02;12.05;;;8.77;;
51438;SDS011;38816;51.142;-0.974;2024-02-21T07:25:28;14.90;;;8.75;;
51438;SDS011;38816;51.142;-0.974;2024-02-21T07:27:54;32.50;;;11.20;;
51438;SDS011;38816;51.142;-0.974;2024-02-21T07:30:19;20.30;;;9.45;;
51438;SDS011;38816;51.142;-0.974;2024-02-21T07:32:45;26.25;;;10.48;;
51438;SDS011;38816;51.142;-0.974;2024-02-21T07:35:10;21.05;;;9.70;;
51438;SDS011;38816;51.142;-0.974;2024-02-21T07:37:37;17.48;;;9.50;;
51438;SDS011;38816;51.142;-0.974;2024-02-21T07:40:04;18.17;;;10.00;;
51438;SDS011;38816;51.142;-0.974;2024-02-21T07:42:40;19.60;;;9.30;;
51438;SDS011;38816;51.142;-0.974;2024-02-21T07:45:06;17.75;;;9.18;;
51438;SDS011;38816;51.142;-0.974;2024-02-21T07:47:32;16.52;;;8.65;;
51438;SDS011;38816;51.142;-0.974;2024-02-21T07:49:58;14.77;;;8.10;;
51438;SDS011;38816;51.142;-0.974;2024-02-21T07:52:23;21.48;;;8.93;;
51438;SDS011;38816;51.142;-0.974;2024-02-21T07:54:50;15.27;;;7.85;;
51438;SDS011;38816;51.142;-0.974;2024-02-21T07:57:15;20.35;;;8.57;;
51438;SDS011;38816;51.142;-0.974;2024-02-21T07:59:41;12.57;;;8.02;;
51438;SDS011;38816;51.142;-0.974;2024-02-21T08:02:07;19.30;;;8.52;;
51438;SDS011;38816;51.142;-0.974;2024-02-21T08:04:33;17.17;;;8.55;;
51438;SDS011;38816;51.142;-0.974;2024-02-21T08:06:58;16.48;;;8.65;;
51438;SDS011;38816;51.142;-0.974;2024-02-21T08:09:29;11.65;;;8.75;;
51438;SDS011;38816;51.142;-0.974;2024-02-21T08:11:54;13.30;;;8.90;;
51438;SDS011;38816;51.142;-0.974;2024-02-21T08:14:20;16.92;;;8.73;;
51438;SDS011;38816;51.142;-0.974;2024-02-21T08:16:46;15.23;;;8.55;;
51438;SDS011;38816;51.142;-0.974;2024-02-21T08:19:12;12.30;;;7.75;;
51438;SDS011;38816;51.142;-0.974;2024-02-21T08:21:38;9.50;;;8.35;;
51438;SDS011;38816;51.142;-0.974;2024-02-21T08:24:04;12.15;;;8.35;;
51438;SDS011;38816;51.142;-0.974;2024-02-21T08:26:30;11.98;;;7.78;;
51438;SDS011;38816;51.142;-0.974;2024-02-21T08:28:56;9.63;;;7.88;;
51438;SDS011;38816;51.142;-0.974;2024-02-21T08:31:25;12.18;;;8.23;;
51438;SDS011;38816;51.142;-0.974;2024-02-21T08:33:56;11.30;;;7.75;;
51438;SDS011;38816;51.142;-0.974;2024-02-21T08:36:28;13.50;;;7.35;;
51438;SDS011;38816;51.142;-0.974;2024-02-21T08:38:54;14.10;;;8.32;;
51438;SDS011;38816;51.142;-0.974;2024-02-21T08:41:20;18.00;;;8.60;;
51438;SDS011;38816;51.142;-0.974;2024-02-21T08:43:48;16.13;;;7.97;;
51438;SDS011;38816;51.142;-0.974;2024-02-21T08:46:14;15.52;;;6.45;;
51438;SDS011;38816;51.142;-0.974;2024-02-21T08:48:39;15.07;;;7.75;;
51438;SDS011;38816;51.142;-0.974;2024-02-21T08:51:05;18.92;;;7.28;;
51438;SDS011;38816;51.142;-0.974;2024-02-21T08:53:31;10.85;;;8.38;;
51438;SDS011;38816;51.142;-0.974;2024-02-21T08:55:56;18.13;;;7.85;;
51438;SDS011;38816;51.142;-0.974;2024-02-21T08:58:24;11.40;;;6.10;;
51438;SDS011;38816;51.142;-0.974;2024-02-21T09:01:02;12.20;;;7.40;;
51438;SDS011;38816;51.142;-0.974;2024-02-21T09:03:35;11.60;;;7.30;;
51438;SDS011;38816;51.142;-0.974;2024-02-21T09:06:01;18.80;;;8.55;;
51438;SDS011;38816;51.142;-0.974;2024-02-21T09:08:27;14.63;;;7.43;;
51438;SDS011;38816;51.142;-0.974;2024-02-21T09:10:53;14.23;;;7.95;;
51438;SDS011;38816;51.142;-0.974;2024-02-21T09:13:22;14.88;;;7.25;;
51438;SDS011;38816;51.142;-0.974;2024-02-21T09:15:49;16.67;;;7.10;;
51438;SDS011;38816;51.142;-0.974;2024-02-21T09:18:15;21.50;;;9.02;;
51438;SDS011;38816;51.142;-0.974;2024-02-21T09:20:41;12.25;;;8.32;;
51438;SDS011;38816;51.142;-0.974;2024-02-21T09:23:07;11.88;;;7.32;;
51438;SDS011;38816;51.142;-0.974;2024-02-21T09:25:33;8.18;;;7.30;;
51438;SDS011;38816;51.142;-0.974;2024-02-21T09:27:59;15.30;;;7.55;;
51438;SDS011;38816;51.142;-0.974;2024-02-21T09:30:26;20.00;;;11.77;;
51438;SDS011;38816;51.142;-0.974;2024-02-21T09:32:52;14.23;;;6.65;;
51438;SDS011;38816;51.142;-0.974;2024-02-21T09:35:18;12.30;;;7.65;;
51438;SDS011;38816;51.142;-0.974;2024-02-21T09:37:43;9.68;;;7.20;;
51438;SDS011;38816;51.142;-0.974;2024-02-21T09:40:09;14.13;;;6.70;;
51438;SDS011;38816;51.142;-0.974;2024-02-21T09:42:39;13.02;;;7.80;;
51438;SDS011;38816;51.142;-0.974;2024-02-21T09:50:47;14.13;;;7.32;;
51438;SDS011;38816;51.142;-0.974;2024-02-21T09:53:15;13.25;;;7.63;;
51438;SDS011;38816;51.142;-0.974;2024-02-21T09:55:41;13.25;;;8.43;;
51438;SDS011;38816;51.142;-0.974;2024-02-21T09:58:09;10.68;;;7.15;;
51438;SDS011;38816;51.142;-0.974;2024-02-21T10:00:35;12.45;;;7.15;;
51438;SDS011;38816;51.142;-0.974;2024-02-21T10:03:01;7.78;;;7.07;;
51438;SDS011;38816;51.142;-0.974;2024-02-21T10:05:37;12.25;;;6.80;;
51438;SDS011;38816;51.142;-0.974;2024-02-21T10:08:03;9.38;;;8.02;;
51438;SDS011;38816;51.142;-0.974;2024-02-21T10:10:29;7.95;;;7.10;;
51438;SDS011;38816;51.142;-0.974;2024-02-21T10:13:05;8.15;;;7.10;;
51438;SDS011;38816;51.142;-0.974;2024-02-21T10:15:30;12.65;;;7.60;;
51438;SDS011;38816;51.142;-0.974;2024-02-21T10:18:00;8.98;;;7.50;;
51438;SDS011;38816;51.142;-0.974;2024-02-21T10:20:26;12.13;;;6.63;;
51438;SDS011;38816;51.142;-0.974;2024-02-21T10:23:02;11.50;;;8.40;;
51438;SDS011;38816;51.142;-0.974;2024-02-21T10:25:33;8.38;;;6.65;;
51438;SDS011;38816;51.142;-0.974;2024-02-21T10:27:59;14.80;;;7.82;;
51438;SDS011;38816;51.142;-0.974;2024-02-21T10:30:24;16.23;;;8.93;;
51438;SDS011;38816;51.142;-0.974;2024-02-21T10:35:25;8.55;;;7.03;;
51438;SDS011;38816;51.142;-0.974;2024-02-21T10:37:54;11.02;;;8.20;;
51438;SDS011;38816;51.142;-0.974;2024-02-21T10:40:22;7.75;;;6.97;;
51438;SDS011;38816;51.142;-0.974;2024-02-21T10:42:50;20.63;;;15.32;;
51438;SDS011;38816;51.142;-0.974;2024-02-21T10:45:22;8.50;;;7.80;;
51438;SDS011;38816;51.142;-0.974;2024-02-21T10:47:51;9.15;;;6.57;;
51438;SDS011;38816;51.142;-0.974;2024-02-21T10:50:21;8.15;;;6.30;;
51438;SDS011;38816;51.142;-0.974;2024-02-21T10:55:40;8.32;;;7.53;;
51438;SDS011;38816;51.142;-0.974;2024-02-21T10:58:10;9.25;;;7.22;;
51438;SDS011;38816;51.142;-0.974;2024-02-21T11:00:36;7.63;;;6.78;;
51438;SDS011;38816;51.142;-0.974;2024-02-21T11:03:03;11.05;;;6.68;;
51438;SDS011;38816;51.142;-0.974;2024-02-21T11:05:29;10.95;;;6.95;;
51438;SDS011;38816;51.142;-0.974;2024-02-21T11:07:55;8.35;;;6.32;;
51438;SDS011;38816;51.142;-0.974;2024-02-21T11:10:25;10.02;;;6.50;;
51438;SDS011;38816;51.142;-0.974;2024-02-21T11:12:52;7.90;;;6.65;;
51438;SDS011;38816;51.142;-0.974;2024-02-21T11:15:24;7.15;;;6.32;;
51438;SDS011;38816;51.142;-0.974;2024-02-21T11:17:55;7.68;;;6.50;;
51438;SDS011;38816;51.142;-0.974;2024-02-21T11:20:21;8.75;;;6.65;;
51438;SDS011;38816;51.142;-0.974;2024-02-21T11:23:00;7.43;;;6.70;;
51438;SDS011;38816;51.142;-0.974;2024-02-21T11:25:26;6.10;;;5.53;;
51438;SDS011;38816;51.142;-0.974;2024-02-21T11:27:59;6.43;;;5.82;;
51438;SDS011;38816;51.142;-0.974;2024-02-21T11:30:31;10.88;;;6.60;;
51438;SDS011;38816;51.142;-0.974;2024-02-21T11:33:06;9.25;;;6.18;;
51438;SDS011;38816;51.142;-0.974;2024-02-21T11:35:32;6.85;;;6.15;;
51438;SDS011;38816;51.142;-0.974;2024-02-21T11:38:08;9.25;;;6.88;;
51438;SDS011;38816;51.142;-0.974;2024-02-21T11:40:39;7.28;;;6.50;;
51438;SDS011;38816;51.142;-0.974;2024-02-21T11:43:06;8.30;;;7.38;;
51438;SDS011;38816;51.142;-0.974;2024-02-21T11:45:33;7.63;;;5.85;;
51438;SDS011;38816;51.142;-0.974;2024-02-21T11:47:59;7.55;;;6.30;;
51438;SDS011;38816;51.142;-0.974;2024-02-21T11:50:26;9.32;;;6.25;;
51438;SDS011;38816;51.142;-0.974;2024-02-21T11:52:54;6.47;;;5.88;;
51438;SDS011;38816;51.142;-0.974;2024-02-21T11:55:20;8.80;;;6.43;;
51438;SDS011;38816;51.142;-0.974;2024-02-21T11:57:50;6.57;;;5.78;;
51438;SDS011;38816;51.142;-0.974;2024-02-21T12:00:16;8.13;;;6.13;;
51438;SDS011;38816;51.142;-0.974;2024-02-21T12:02:45;6.25;;;5.65;;
51438;SDS011;38816;51.142;-0.974;2024-02-21T12:05:11;5.72;;;4.97;;
51438;SDS011;38816;51.142;-0.974;2024-02-21T12:07:37;8.57;;;6.38;;
51438;SDS011;38816;51.142;-0.974;2024-02-21T12:10:11;7.45;;;5.80;;
51438;SDS011;38816;51.142;-0.974;2024-02-21T12:12:37;7.75;;;5.68;;
51438;SDS011;38816;51.142;-0.974;2024-02-21T12:15:04;6.35;;;5.85;;
51438;SDS011;38816;51.142;-0.974;2024-02-21T12:17:32;8.48;;;4.82;;
51438;SDS011;38816;51.142;-0.974;2024-02-21T12:19:59;6.25;;;5.57;;
51438;SDS011;38816;51.142;-0.974;2024-02-21T12:22:25;6.25;;;5.50;;
51438;SDS011;38816;51.142;-0.974;2024-02-21T12:24:51;6.55;;;5.70;;
51438;SDS011;38816;51.142;-0.974;2024-02-21T12:27:17;8.02;;;5.93;;
51438;SDS011;38816;51.142;-0.974;2024-02-21T12:29:42;12.93;;;6.45;;
51438;SDS011;38816;51.142;-0.974;2024-02-21T12:32:08;6.25;;;5.65;;
51438;SDS011;38816;51.142;-0.974;2024-02-21T12:34:33;6.15;;;5.55;;
51438;SDS011;38816;51.142;-0.974;2024-02-21T12:36:59;7.60;;;6.10;;
51438;SDS011;38816;51.142;-0.974;2024-02-21T12:39:24;10.80;;;5.57;;
51438;SDS011;38816;51.142;-0.974;2024-02-21T12:41:53;11.73;;;6.40;;
51438;SDS011;38816;51.142;-0.974;2024-02-21T12:44:21;6.70;;;5.30;;
51438;SDS011;38816;51.142;-0.974;2024-02-21T12:46:46;8.82;;;5.55;;
51438;SDS011;38816;51.142;-0.974;2024-02-21T12:49:16;9.40;;;5.78;;
51438;SDS011;38816;51.142;-0.974;2024-02-21T12:51:43;5.15;;;4.70;;
51438;SDS011;38816;51.142;-0.974;2024-02-21T12:54:08;5.90;;;5.35;;
51438;SDS011;38816;51.142;-0.974;2024-02-21T12:56:36;6.15;;;5.28;;
51438;SDS011;38816;51.142;-0.974;2024-02-21T12:59:02;7.00;;;6.25;;
51438;SDS011;38816;51.142;-0.974;2024-02-21T13:01:28;6.47;;;5.18;;
51438;SDS011;38816;51.142;-0.974;2024-02-21T13:03:54;8.50;;;5.65;;
51438;SDS011;38816;51.142;-0.974;2024-02-21T13:06:20;7.22;;;5.65;;
51438;SDS011;38816;51.142;-0.974;2024-02-21T13:08:46;5.15;;;4.75;;
51438;SDS011;38816;51.142;-0.974;2024-02-21T13:11:12;6.05;;;5.45;;
51438;SDS011;38816;51.142;-0.974;2024-02-21T13:13:38;6.78;;;6.18;;
51438;SDS011;38816;51.142;-0.974;2024-02-21T13:16:03;5.82;;;5.32;;
51438;SDS011;38816;51.142;-0.974;2024-02-21T13:18:29;10.18;;;6.15;;
51438;SDS011;38816;51.142;-0.974;2024-02-21T13:20:55;6.40;;;5.28;;
51438;SDS011;38816;51.142;-0.974;2024-02-21T13:23:21;7.75;;;5.80;;
51438;SDS011;38816;51.142;-0.974;2024-02-21T13:25:46;6.95;;;6.05;;
51438;SDS011;38816;51.142;-0.974;2024-02-21T13:28:12;7.40;;;6.65;;
51438;SDS011;38816;51.142;-0.974;2024-02-21T13:30:38;7.47;;;6.75;;
51438;SDS011;38816;51.142;-0.974;2024-02-21T13:33:05;5.85;;;5.25;;
51438;SDS011;38816;51.142;-0.974;2024-02-21T13:35:32;10.32;;;6.65;;
51438;SDS011;38816;51.142;-0.974;2024-02-21T13:37:57;7.82;;;6.25;;
51438;SDS011;38816;51.142;-0.974;2024-02-21T13:40:23;11.20;;;6.35;;
51438;SDS011;38816;51.142;-0.974;2024-02-21T13:42:50;9.02;;;7.63;;
51438;SDS011;38816;51.142;-0.974;2024-02-21T13:45:16;8.80;;;7.15;;
51438;SDS011;38816;51.142;-0.974;2024-02-21T13:47:41;10.88;;;7.05;;
51438;SDS011;38816;51.142;-0.974;2024-02-21T13:50:07;10.88;;;6.50;;
51438;SDS011;38816;51.142;-0.974;2024-02-21T13:52:39;12.15;;;5.95;;
51438;SDS011;38816;51.142;-0.974;2024-02-21T13:55:05;8.55;;;6.22;;
51438;SDS011;38816;51.142;-0.974;2024-02-21T13:57:34;11.65;;;5.72;;
51438;SDS011;38816;51.142;-0.974;2024-02-21T14:00:00;8.90;;;6.18;;
51438;SDS011;38816;51.142;-0.974;2024-02-21T14:02:25;10.82;;;5.78;;
51438;SDS011;38816;51.142;-0.974;2024-02-21T14:04:51;6.35;;;5.85;;
51438;SDS011;38816;51.142;-0.974;2024-02-21T14:07:16;7.85;;;6.28;;
51438;SDS011;38816;51.142;-0.974;2024-02-21T14:09:42;8.27;;;6.40;;
51438;SDS011;38816;51.142;-0.974;2024-02-21T14:12:08;9.90;;;6.40;;
51438;SDS011;38816;51.142;-0.974;2024-02-21T14:14:36;9.90;;;6.63;;
51438;SDS011;38816;51.142;-0.974;2024-02-21T14:17:03;6.82;;;6.22;;
51438;SDS011;38816;51.142;-0.974;2024-02-21T14:19:31;10.45;;;9.38;;
51438;SDS011;38816;51.142;-0.974;2024-02-21T14:21:57;6.82;;;6.15;;
51438;SDS011;38816;51.142;-0.974;2024-02-21T14:24:23;5.70;;;5.00;;
51438;SDS011;38816;51.142;-0.974;2024-02-21T14:26:48;17.17;;;15.13;;
51438;SDS011;38816;51.142;-0.974;2024-02-21T14:29:14;7.32;;;6.50;;
51438;SDS011;38816;51.142;-0.974;2024-02-21T14:31:39;9.52;;;7.07;;
51438;SDS011;38816;51.142;-0.974;2024-02-21T14:34:05;10.00;;;7.35;;